Time;durP1;ratioP1;P1;durP2;ratioP2;P2;SDS_P1;SDS_P2;PMS_P1;PMS_P2;Temp;Humidity;BMP_temperature;BMP_pressure;BME280_temperature;BME280_humidity;BME280_pressure;Samples;Min_cycle;Max_cycle;Signal;HPM_P1;HPM_P2
2021/01/26 00:00:43;;;;;;;40.63;25.80;;;-1.10;99.90;;;;;;5075773;28;20177;-90
2021/01/26 00:03:21;;;;;;;35.50;24.40;;;-1.10;99.90;;;;;;5077276;28;20172;-90
2021/01/26 00:05:54;;;;;;;41.00;27.60;;;-1.20;99.90;;;;;;5076194;28;20177;-91
2021/01/26 00:08:32;;;;;;;43.77;27.30;;;-1.20;99.90;;;;;;5075382;28;20256;-90
2021/01/26 00:11:06;;;;;;;42.43;28.30;;;-1.20;99.90;;;;;;5076717;28;20177;-90
2021/01/26 00:13:41;;;;;;;36.83;26.03;;;-1.10;99.90;;;;;;5075440;28;20362;-90
2021/01/26 00:16:11;;;;;;;39.87;26.87;;;-1.20;99.90;;;;;;5075395;28;20211;-91
2021/01/26 00:18:44;;;;;;;40.53;27.10;;;-1.20;99.90;;;;;;5075356;28;20291;-91
2021/01/26 00:21:11;;;;;;;42.07;28.40;;;-1.20;99.90;;;;;;5075957;28;20176;-91
2021/01/26 00:23:44;;;;;;;37.33;27.43;;;-1.20;99.90;;;;;;5075712;28;20528;-91
2021/01/26 00:26:12;;;;;;;39.87;24.83;;;-1.20;99.90;;;;;;5075348;28;20183;-91
2021/01/26 00:28:38;;;;;;;37.53;26.67;;;-1.20;99.90;;;;;;5076489;28;20237;-92
2021/01/26 00:31:11;;;;;;;41.10;26.87;;;-1.30;99.90;;;;;;5076353;28;20178;-91
2021/01/26 00:33:41;;;;;;;41.80;25.33;;;-1.30;99.90;;;;;;5075352;28;20173;-92
2021/01/26 00:36:11;;;;;;;41.73;26.17;;;-1.20;99.90;;;;;;5076306;28;20205;-91
2021/01/26 00:38:37;;;;;;;37.40;26.17;;;-1.20;99.90;;;;;;5075069;28;20656;-91
2021/01/26 00:41:03;;;;;;;41.10;28.00;;;-1.20;99.90;;;;;;5076254;28;20178;-90
2021/01/26 00:43:30;;;;;;;43.87;27.43;;;-1.30;99.90;;;;;;5076127;28;20179;-90
2021/01/26 00:46:04;;;;;;;34.53;24.87;;;-1.30;99.90;;;;;;5076401;28;20212;-90
2021/01/26 00:48:30;;;;;;;37.37;25.97;;;-1.50;99.90;;;;;;5074636;28;20208;-90
2021/01/26 00:50:58;;;;;;;37.83;27.37;;;-1.50;99.90;;;;;;5075883;28;20195;-90
2021/01/26 00:53:31;;;;;;;43.43;28.00;;;-1.50;99.90;;;;;;5075881;28;20174;-90
2021/01/26 00:55:57;;;;;;;42.37;28.57;;;-1.50;99.90;;;;;;5074635;28;20270;-90
2021/01/26 00:58:27;;;;;;;43.10;27.50;;;-1.50;99.90;;;;;;5073543;28;20178;-90
2021/01/26 01:01:02;;;;;;;44.97;28.73;;;-1.40;99.90;;;;;;5074659;28;20268;-90
2021/01/26 01:03:32;;;;;;;44.37;28.67;;;-1.40;99.90;;;;;;5075806;28;20220;-90
2021/01/26 01:06:01;;;;;;;42.13;28.03;;;-1.40;99.90;;;;;;5074800;28;20185;-90
2021/01/26 01:08:34;;;;;;;44.00;29.43;;;-1.40;99.90;;;;;;5074319;28;20222;-90
2021/01/26 01:11:06;;;;;;;44.73;31.10;;;-1.30;99.90;;;;;;5074481;28;20625;-90
2021/01/26 01:13:37;;;;;;;50.27;31.67;;;-1.20;99.90;;;;;;5074352;28;20178;-90
2021/01/26 01:16:14;;;;;;;51.27;32.80;;;-1.10;99.90;;;;;;5074503;28;20650;-90
2021/01/26 01:18:51;;;;;;;50.80;32.30;;;-1.00;99.90;;;;;;5074387;28;20652;-90
2021/01/26 01:21:27;;;;;;;49.77;32.80;;;-0.90;99.90;;;;;;5075400;28;20257;-90
2021/01/26 01:24:06;;;;;;;50.90;34.50;;;-0.90;99.90;;;;;;5075396;28;20168;-90
2021/01/26 01:26:39;;;;;;;50.20;33.67;;;-0.80;99.90;;;;;;5074015;28;20266;-90
2021/01/26 01:29:17;;;;;;;53.20;34.67;;;-0.80;99.90;;;;;;5075251;28;20602;-90
2021/01/26 01:31:53;;;;;;;57.27;32.97;;;-0.80;99.90;;;;;;5074186;28;20204;-90
2021/01/26 01:34:22;;;;;;;49.20;33.57;;;-0.80;99.90;;;;;;5073987;28;20172;-90
2021/01/26 01:36:51;;;;;;;55.13;34.37;;;-0.80;99.90;;;;;;5075105;28;20173;-90
2021/01/26 01:39:28;;;;;;;50.97;33.80;;;-0.80;99.90;;;;;;5074106;28;20221;-90
2021/01/26 01:42:07;;;;;;;47.83;32.63;;;-0.80;99.90;;;;;;5074980;28;20255;-90
2021/01/26 01:44:40;;;;;;;51.23;32.63;;;-0.80;99.90;;;;;;5075034;28;20578;-91
2021/01/26 01:47:19;;;;;;;45.57;31.63;;;-0.70;99.90;;;;;;5074897;28;20216;-90
2021/01/26 01:49:51;;;;;;;44.87;30.97;;;-0.70;99.90;;;;;;5074697;28;20612;-90
2021/01/26 01:52:27;;;;;;;41.70;30.83;;;-0.70;99.90;;;;;;5073522;28;20214;-90
2021/01/26 01:55:06;;;;;;;46.83;31.37;;;-0.70;99.90;;;;;;5073824;28;20167;-90
2021/01/26 01:57:54;;;;;;;44.53;30.50;;;-0.70;99.90;;;;;;5073431;28;20209;-90
2021/01/26 02:00:31;;;;;;;44.97;30.83;;;-0.70;99.90;;;;;;5074477;28;20188;-90
2021/01/26 02:03:17;;;;;;;46.97;29.77;;;-0.70;99.90;;;;;;5073468;28;20261;-90
2021/01/26 02:05:54;;;;;;;49.07;30.73;;;-0.70;99.90;;;;;;5074840;28;20207;-90
2021/01/26 02:08:36;;;;;;;46.33;30.63;;;-0.70;99.90;;;;;;5073129;28;20205;-90
2021/01/26 02:11:14;;;;;;;49.23;33.17;;;-0.70;99.90;;;;;;5073677;28;20175;-90
2021/01/26 02:13:51;;;;;;;41.77;30.53;;;-0.80;99.90;;;;;;5073486;28;20179;-90
2021/01/26 02:16:35;;;;;;;46.17;31.47;;;-0.70;99.90;;;;;;5073189;28;20327;-90
2021/01/26 02:19:33;;;;;;;44.53;30.40;;;-0.70;99.90;;;;;;5074442;28;20186;-90
2021/01/26 02:22:36;;;;;;;49.80;31.73;;;-0.70;99.90;;;;;;5074177;28;20203;-90
2021/01/26 02:25:15;;;;;;;41.97;31.13;;;-0.70;99.90;;;;;;5072856;28;20169;-90
2021/01/26 02:27:54;;;;;;;44.33;31.90;;;-0.60;99.90;;;;;;5073952;28;20203;-91
2021/01/26 02:30:49;;;;;;;45.47;33.10;;;-0.60;99.90;;;;;;5074011;28;20244;-90
2021/01/26 02:33:41;;;;;;;44.13;32.20;;;-0.60;99.90;;;;;;5072694;28;20179;-90
2021/01/26 02:36:32;;;;;;;51.73;33.80;;;-0.50;99.90;;;;;;5073878;28;20178;-90
2021/01/26 02:39:34;;;;;;;54.97;35.17;;;-0.50;99.90;;;;;;5072829;28;20204;-90
2021/01/26 02:42:27;;;;;;;46.60;31.27;;;-0.40;99.90;;;;;;5072568;28;20178;-90
2021/01/26 02:45:35;;;;;;;53.63;35.10;;;-0.40;99.90;;;;;;5073776;28;20192;-90
2021/01/26 02:48:15;;;;;;;55.00;35.90;;;-0.40;99.90;;;;;;5073897;28;20194;-90
2021/01/26 02:50:51;;;;;;;58.80;37.03;;;-0.30;99.90;;;;;;5073769;28;20215;-90
2021/01/26 02:53:42;;;;;;;53.30;36.40;;;-0.30;99.90;;;;;;5072407;28;20171;-90
2021/01/26 02:56:27;;;;;;;52.40;35.33;;;-0.30;99.90;;;;;;5073854;28;20174;-90
2021/01/26 02:59:04;;;;;;;48.73;34.43;;;-0.30;99.90;;;;;;5073495;28;20188;-90
2021/01/26 03:01:44;;;;;;;55.07;34.43;;;-0.30;99.90;;;;;;5073820;28;20189;-90
2021/01/26 03:04:41;;;;;;;46.80;32.27;;;-0.20;99.90;;;;;;5072306;28;20707;-90
2021/01/26 03:07:15;;;;;;;51.37;32.90;;;-0.20;99.90;;;;;;5072184;28;20198;-90
2021/01/26 03:09:51;;;;;;;50.53;31.40;;;-0.20;99.90;;;;;;5073389;28;20191;-90
2021/01/26 03:12:37;;;;;;;50.10;33.60;;;-0.10;99.90;;;;;;5072081;28;20591;-90
2021/01/26 03:15:07;;;;;;;52.77;31.73;;;0.00;99.90;;;;;;5072333;28;20172;-90
2021/01/26 03:17:48;;;;;;;49.30;30.43;;;0.00;99.90;;;;;;5072166;28;20643;-90
2021/01/26 03:20:27;;;;;;;52.63;32.37;;;0.00;99.90;;;;;;5072016;28;20195;-90
2021/01/26 03:23:01;;;;;;;47.43;33.17;;;-0.10;99.90;;;;;;5073867;28;20171;-90
2021/01/26 03:25:40;;;;;;;46.10;32.03;;;-0.10;99.90;;;;;;5073296;28;20182;-90
2021/01/26 03:28:18;;;;;;;54.63;33.10;;;-0.10;99.90;;;;;;5072320;28;20593;-90
2021/01/26 03:30:51;;;;;;;49.67;32.70;;;0.00;99.90;;;;;;5072777;28;20499;-90
2021/01/26 03:33:31;;;;;;;50.57;33.07;;;-0.10;99.90;;;;;;5071943;28;20539;-90
2021/01/26 03:36:07;;;;;;;51.67;34.50;;;-0.20;99.90;;;;;;5071907;28;20576;-90
2021/01/26 03:38:44;;;;;;;54.37;35.53;;;-0.20;99.90;;;;;;5071803;28;20286;-90
2021/01/26 03:41:21;;;;;;;52.37;32.50;;;-0.10;99.90;;;;;;5073112;28;20170;-90
2021/01/26 03:43:57;;;;;;;47.57;32.60;;;-0.10;99.90;;;;;;5071893;28;20191;-90
2021/01/26 03:46:50;;;;;;;52.47;35.53;;;-0.20;99.90;;;;;;5072974;28;20180;-90
2021/01/26 03:49:44;;;;;;;53.93;34.40;;;-0.20;99.90;;;;;;5071564;28;20712;-90
2021/01/26 03:52:30;;;;;;;48.40;33.67;;;-0.20;99.90;;;;;;5071999;28;20635;-90
2021/01/26 03:55:26;;;;;;;51.87;35.23;;;-0.10;99.90;;;;;;5072363;28;20178;-90
2021/01/26 03:58:24;;;;;;;48.53;33.63;;;-0.10;99.90;;;;;;5073014;28;20171;-90
2021/01/26 04:01:09;;;;;;;51.87;33.00;;;-0.10;99.90;;;;;;5071966;28;20206;-90
2021/01/26 04:04:01;;;;;;;54.67;35.60;;;-0.10;99.90;;;;;;5072775;28;20210;-90
2021/01/26 04:06:50;;;;;;;54.57;33.97;;;-0.10;99.90;;;;;;5072881;28;20661;-90
2021/01/26 04:09:33;;;;;;;52.63;35.60;;;-0.10;99.90;;;;;;5073590;28;20206;-90
2021/01/26 04:12:17;;;;;;;58.73;36.07;;;-0.20;99.90;;;;;;5071565;28;20174;-91
2021/01/26 04:15:09;;;;;;;56.00;35.87;;;-0.20;99.90;;;;;;5072840;28;20219;-90
2021/01/26 04:17:51;;;;;;;57.50;35.77;;;-0.20;99.90;;;;;;5073134;28;20171;-90
2021/01/26 04:20:34;;;;;;;56.43;34.50;;;-0.10;99.90;;;;;;5071387;28;20254;-90
2021/01/26 04:23:07;;;;;;;54.33;35.63;;;-0.10;99.90;;;;;;5072645;28;20183;-90
2021/01/26 04:25:41;;;;;;;55.43;36.90;;;-0.10;99.90;;;;;;5071504;28;20173;-90
2021/01/26 04:28:47;;;;;;;57.50;36.30;;;-0.10;99.90;;;;;;5071945;28;20210;-90
2021/01/26 04:31:21;;;;;;;58.00;36.90;;;-0.10;99.90;;;;;;5066888;28;20187;-90
2021/01/26 04:33:48;;;;;;;50.10;34.57;;;-0.10;99.90;;;;;;5074286;28;20221;-90
2021/01/26 04:36:21;;;;;;;55.30;35.80;;;-0.10;99.90;;;;;;5076282;28;20167;-90
2021/01/26 04:38:54;;;;;;;60.83;36.27;;;-0.10;99.90;;;;;;5074854;28;20217;-90
2021/01/26 04:41:41;;;;;;;53.47;36.93;;;-0.10;99.90;;;;;;5075500;28;20511;-90
2021/01/26 04:44:24;;;;;;;49.87;35.23;;;-0.10;99.90;;;;;;5076557;28;20544;-90
2021/01/26 04:47:11;;;;;;;62.43;34.67;;;-0.10;99.90;;;;;;5074783;28;20179;-90
2021/01/26 04:50:02;;;;;;;52.37;35.17;;;0.00;99.90;;;;;;5074772;28;20218;-90
2021/01/26 04:52:59;;;;;;;48.10;35.27;;;0.00;99.90;;;;;;5074679;28;20183;-90
2021/01/26 04:55:57;;;;;;;53.67;33.97;;;0.00;99.90;;;;;;5075938;28;20278;-90
2021/01/26 04:58:38;;;;;;;48.03;34.43;;;0.00;99.90;;;;;;5074569;28;20179;-90
2021/01/26 05:01:39;;;;;;;50.70;34.33;;;0.10;99.90;;;;;;5075982;28;20591;-90
2021/01/26 05:04:30;;;;;;;49.83;33.47;;;0.10;99.90;;;;;;5074539;28;20658;-90
2021/01/26 05:07:11;;;;;;;44.47;32.63;;;0.10;99.90;;;;;;5074903;28;20676;-90
2021/01/26 05:10:12;;;;;;;45.03;32.70;;;0.10;99.90;;;;;;5074606;28;20227;-90
2021/01/26 05:12:53;;;;;;;48.80;32.63;;;0.10;99.90;;;;;;5075828;28;20175;-90
2021/01/26 05:15:22;;;;;;;43.00;30.67;;;0.10;99.90;;;;;;5074304;28;20176;-90
2021/01/26 05:18:01;;;;;;;39.33;30.57;;;0.10;99.90;;;;;;5075547;28;20654;-91
2021/01/26 05:20:41;;;;;;;40.50;29.73;;;0.10;99.90;;;;;;5074260;28;20198;-90
2021/01/26 05:23:21;;;;;;;41.83;29.80;;;0.10;99.90;;;;;;5075444;28;20175;-90
2021/01/26 05:25:55;;;;;;;38.83;28.10;;;0.10;99.90;;;;;;5075455;28;20275;-90
2021/01/26 05:28:31;;;;;;;38.37;28.63;;;0.10;99.90;;;;;;5073878;28;20226;-90
2021/01/26 05:31:05;;;;;;;35.80;27.23;;;0.00;99.90;;;;;;5075511;28;20247;-90
2021/01/26 05:33:44;;;;;;;38.53;28.03;;;0.00;99.90;;;;;;5075198;28;20175;-90
2021/01/26 05:36:21;;;;;;;38.17;28.57;;;0.00;99.90;;;;;;5073927;28;20675;-90
2021/01/26 05:38:54;;;;;;;39.43;28.50;;;-0.10;99.90;;;;;;5074066;28;20678;-90
2021/01/26 05:41:21;;;;;;;39.03;27.43;;;-0.10;99.90;;;;;;5075897;28;20641;-90
2021/01/26 05:43:59;;;;;;;34.47;25.23;;;-0.10;99.90;;;;;;5074568;28;20192;-90
2021/01/26 05:46:39;;;;;;;35.53;26.37;;;-0.20;99.90;;;;;;5074959;28;20257;-90
2021/01/26 05:49:11;;;;;;;33.87;25.60;;;-0.20;99.90;;;;;;5074009;28;20215;-90
2021/01/26 05:51:45;;;;;;;38.37;27.20;;;-0.30;99.90;;;;;;5073669;28;20195;-91
2021/01/26 05:54:21;;;;;;;38.63;26.80;;;-0.30;99.90;;;;;;5073585;28;20222;-90
2021/01/26 05:56:52;;;;;;;34.47;25.83;;;-0.40;99.90;;;;;;5073452;28;20194;-90
2021/01/26 05:59:39;;;;;;;37.23;27.77;;;-0.40;99.90;;;;;;5073456;28;20199;-90
2021/01/26 06:02:14;;;;;;;36.57;25.67;;;-0.40;99.90;;;;;;5074839;28;20179;-90
2021/01/26 06:04:47;;;;;;;33.87;25.90;;;-0.50;99.90;;;;;;5074612;28;20166;-90
2021/01/26 06:07:22;;;;;;;37.17;25.33;;;-0.50;99.90;;;;;;5073304;28;20199;-90
2021/01/26 06:09:57;;;;;;;36.17;27.33;;;-0.60;99.90;;;;;;5074358;28;20194;-90
2021/01/26 06:12:27;;;;;;;36.60;26.57;;;-0.70;99.90;;;;;;5073157;28;20179;-90
2021/01/26 06:14:59;;;;;;;40.53;27.80;;;-0.70;99.90;;;;;;5074438;28;20288;-91
2021/01/26 06:17:31;;;;;;;37.03;27.30;;;-0.80;99.90;;;;;;5074395;28;20243;-91
2021/01/26 06:20:19;;;;;;;35.47;26.63;;;-0.80;99.90;;;;;;5072978;28;20286;-90
2021/01/26 06:22:49;;;;;;;37.40;26.80;;;-0.80;99.90;;;;;;5074189;28;20192;-90
2021/01/26 06:25:31;;;;;;;41.03;26.70;;;-0.80;99.90;;;;;;5073038;28;20659;-90
2021/01/26 06:28:31;;;;;;;36.17;27.53;;;-0.80;99.90;;;;;;5072873;28;20203;-91
2021/01/26 06:31:21;;;;;;;36.87;27.20;;;-1.00;99.90;;;;;;5074484;28;20556;-90
2021/01/26 06:34:25;;;;;;;39.27;27.80;;;-1.00;99.90;;;;;;5074029;28;20171;-90
2021/01/26 06:37:10;;;;;;;40.53;26.77;;;-1.00;99.90;;;;;;5072924;28;20626;-90
2021/01/26 06:40:05;;;;;;;41.70;29.67;;;-1.00;99.90;;;;;;5073862;28;20199;-90
2021/01/26 06:43:14;;;;;;;37.97;28.53;;;-1.10;99.90;;;;;;5072829;28;20178;-90
2021/01/26 06:46:01;;;;;;;43.60;27.93;;;-1.10;99.90;;;;;;5032101;28;20188;-90
2021/01/26 06:49:11;;;;;;;39.33;28.20;;;-1.10;99.90;;;;;;5071517;28;20226;-90
2021/01/26 06:52:11;;;;;;;39.13;27.90;;;-1.20;99.90;;;;;;5073724;28;20184;-90
2021/01/26 06:54:58;;;;;;;36.73;26.30;;;-1.20;99.90;;;;;;5071955;28;20224;-90
2021/01/26 06:57:47;;;;;;;38.97;27.93;;;-1.30;99.90;;;;;;5072433;28;20187;-90
2021/01/26 07:00:31;;;;;;;39.77;28.30;;;-1.30;99.90;;;;;;5072297;28;20195;-91
2021/01/26 07:03:15;;;;;;;44.30;30.63;;;-1.30;99.90;;;;;;5073482;28;20182;-90
2021/01/26 07:06:05;;;;;;;42.57;29.57;;;-1.30;99.90;;;;;;5072202;28;20193;-90
2021/01/26 07:08:58;;;;;;;43.73;30.27;;;-1.30;99.90;;;;;;5073293;28;20207;-90
2021/01/26 07:11:54;;;;;;;41.63;28.10;;;-1.30;99.90;;;;;;5072257;28;20541;-90
2021/01/26 07:14:58;;;;;;;42.30;30.03;;;-1.20;99.90;;;;;;5073255;28;20178;-90
2021/01/26 07:17:58;;;;;;;47.50;33.70;;;-1.30;99.90;;;;;;5072061;28;20183;-90
2021/01/26 07:20:56;;;;;;;55.63;35.20;;;-1.30;99.90;;;;;;5072134;28;20575;-90
2021/01/26 07:23:40;;;;;;;53.60;36.53;;;-1.20;99.90;;;;;;5072764;28;20175;-90
2021/01/26 07:26:30;;;;;;;53.93;36.23;;;-1.20;99.90;;;;;;5073251;28;20186;-90
2021/01/26 07:29:27;;;;;;;48.57;33.47;;;-1.20;99.90;;;;;;5071722;28;20225;-90
2021/01/26 07:32:24;;;;;;;54.60;34.27;;;-1.30;99.90;;;;;;5071944;28;20176;-90
2021/01/26 07:35:04;;;;;;;52.20;33.67;;;-1.20;99.90;;;;;;5071893;28;20188;-90
2021/01/26 07:38:00;;;;;;;55.20;36.43;;;-1.10;99.90;;;;;;5073226;28;20189;-90
2021/01/26 07:40:50;;;;;;;60.47;39.87;;;-1.10;99.90;;;;;;5072101;28;20662;-91
2021/01/26 07:43:41;;;;;;;59.40;38.83;;;-1.10;99.90;;;;;;5072110;28;20184;-89
2021/01/26 07:46:36;;;;;;;51.97;33.87;;;-1.10;99.90;;;;;;5071971;28;20181;-90
2021/01/26 07:49:32;;;;;;;54.57;35.03;;;-1.10;99.90;;;;;;5071740;28;20217;-90
2021/01/26 07:52:09;;;;;;;48.57;33.43;;;-1.10;99.90;;;;;;5072991;28;20590;-90
2021/01/26 07:55:06;;;;;;;54.07;33.80;;;-1.10;99.90;;;;;;5071875;28;20637;-90
2021/01/26 07:57:43;;;;;;;51.17;34.33;;;-1.10;99.90;;;;;;5072872;28;20658;-90
2021/01/26 08:00:12;;;;;;;60.07;40.13;;;-1.20;99.90;;;;;;5071586;28;20747;-90
2021/01/26 08:02:50;;;;;;;67.20;43.10;;;-0.90;99.90;;;;;;5071630;28;20188;-90
2021/01/26 08:05:19;;;;;;;66.70;41.77;;;-0.90;99.90;;;;;;5071596;28;20284;-90
2021/01/26 08:07:48;;;;;;;62.20;39.80;;;-0.90;99.90;;;;;;5074787;28;20767;-90
2021/01/26 08:10:22;;;;;;;60.33;41.33;;;-1.00;99.90;;;;;;5075555;28;20434;-90
2021/01/26 08:12:50;;;;;;;60.00;40.73;;;-1.00;99.90;;;;;;5075447;28;20184;-90
2021/01/26 08:15:30;;;;;;;65.03;42.30;;;-1.00;99.90;;;;;;5075716;28;20277;-90
2021/01/26 08:18:20;;;;;;;66.60;43.53;;;-0.90;99.90;;;;;;5076252;28;20184;-91
2021/01/26 08:20:47;;;;;;;74.93;43.63;;;-0.80;99.90;;;;;;5076011;28;20168;-89
2021/01/26 08:23:30;;;;;;;79.73;45.37;;;-0.70;99.90;;;;;;5076393;28;20231;-90
2021/01/26 08:26:16;;;;;;;79.73;47.53;;;-0.60;99.90;;;;;;5075127;28;20187;-90
2021/01/26 08:28:46;;;;;;;81.80;48.33;;;-0.60;99.90;;;;;;5075609;28;20299;-90
2021/01/26 08:31:35;;;;;;;82.70;46.10;;;-0.50;99.90;;;;;;5075118;28;20188;-89
2021/01/26 08:34:25;;;;;;;77.77;46.43;;;-0.60;99.90;;;;;;5075075;28;20177;-90
2021/01/26 08:37:20;;;;;;;70.73;45.80;;;-0.60;99.90;;;;;;5075017;28;20175;-90
2021/01/26 08:39:50;;;;;;;78.50;47.43;;;-0.60;99.90;;;;;;5075040;28;20223;-91
2021/01/26 08:42:43;;;;;;;84.90;49.80;;;-0.50;99.90;;;;;;5074908;28;20181;-90
2021/01/26 08:45:31;;;;;;;95.33;51.37;;;-0.50;99.90;;;;;;5075017;28;20178;-90
2021/01/26 08:48:09;;;;;;;88.33;49.53;;;-0.40;99.90;;;;;;5075767;28;20206;-90
2021/01/26 08:51:11;;;;;;;90.27;51.37;;;-0.30;99.90;;;;;;5159989;22;20236;-88
2021/01/26 08:53:47;;;;;;;88.43;51.23;;;-0.30;99.90;;;;;;5064815;28;20575;-89
2021/01/26 08:56:26;;;;;;;92.00;51.13;;;-0.20;99.90;;;;;;5074769;28;20176;-89
2021/01/26 08:58:58;;;;;;;87.50;54.37;;;-0.10;99.90;;;;;;5074573;28;20201;-89
2021/01/26 09:01:40;;;;;;;97.50;54.37;;;-0.10;99.90;;;;;;5074723;28;20195;-90
2021/01/26 09:04:14;;;;;;;94.17;51.77;;;-0.10;99.90;;;;;;5074670;28;20168;-90
2021/01/26 09:06:48;;;;;;;95.43;52.87;;;0.10;99.90;;;;;;5074460;28;20212;-89
2021/01/26 09:09:31;;;;;;;96.90;53.63;;;0.10;99.90;;;;;;5074459;28;20241;-90
2021/01/26 09:12:12;;;;;;;99.17;52.67;;;0.20;99.90;;;;;;5074802;28;20195;-89
2021/01/26 09:14:50;;;;;;;95.70;53.27;;;0.10;99.90;;;;;;5075618;28;20177;-89
2021/01/26 09:17:31;;;;;;;94.00;54.10;;;0.10;99.90;;;;;;5074489;28;20196;-90
2021/01/26 09:20:20;;;;;;;90.17;52.37;;;0.20;99.90;;;;;;5073794;28;20196;-90
2021/01/26 09:23:03;;;;;;;78.63;46.80;;;0.20;99.90;;;;;;5074186;28;20181;-89
2021/01/26 09:25:41;;;;;;;90.67;51.40;;;0.30;99.90;;;;;;5074245;28;20181;-90
2021/01/26 09:28:17;;;;;;;86.63;51.73;;;0.30;99.90;;;;;;5074158;28;20292;-90
2021/01/26 09:30:56;;;;;;;85.73;50.10;;;0.30;99.90;;;;;;5075573;28;20232;-90
2021/01/26 09:33:31;;;;;;;90.77;52.53;;;0.30;99.90;;;;;;5074132;28;20171;-90
2021/01/26 09:36:10;;;;;;;85.53;51.07;;;0.40;99.90;;;;;;5073973;28;20177;-90
2021/01/26 09:38:48;;;;;;;82.53;49.50;;;0.40;99.90;;;;;;5074211;28;20285;-90
2021/01/26 09:41:26;;;;;;;86.07;51.73;;;0.40;99.90;;;;;;5074374;28;20646;-90
2021/01/26 09:44:09;;;;;;;80.37;48.63;;;0.40;99.90;;;;;;5073963;28;20181;-89
2021/01/26 09:46:45;;;;;;;80.27;50.13;;;0.50;99.90;;;;;;5073915;28;20187;-89
2021/01/26 09:49:27;;;;;;;79.07;49.53;;;0.60;99.90;;;;;;5073906;28;20272;-90
2021/01/26 09:52:14;;;;;;;82.77;49.23;;;0.70;99.90;;;;;;5073837;28;20179;-91
2021/01/26 09:55:01;;;;;;;79.27;49.73;;;0.80;99.90;;;;;;5074358;28;20174;-91
2021/01/26 09:57:36;;;;;;;74.63;45.37;;;1.00;99.90;;;;;;5073605;28;20541;-90
2021/01/26 10:00:10;;;;;;;76.87;44.60;;;1.00;99.90;;;;;;5074107;28;20198;-91
2021/01/26 10:02:47;;;;;;;65.83;42.67;;;1.10;99.90;;;;;;5073842;28;20179;-91
2021/01/26 10:05:21;;;;;;;63.30;41.40;;;1.10;99.90;;;;;;5073624;28;20179;-91
2021/01/26 10:08:24;;;;;;;62.33;41.13;;;1.20;99.90;;;;;;5073428;28;20214;-91
2021/01/26 10:11:31;;;;;;;64.93;40.83;;;1.40;99.90;;;;;;5073354;28;20191;-90
2021/01/26 10:14:22;;;;;;;55.50;36.73;;;1.40;99.90;;;;;;5052055;28;20183;-91
2021/01/26 10:17:01;;;;;;;52.70;37.53;;;1.60;99.90;;;;;;5073650;28;20171;-90
2021/01/26 10:19:36;;;;;;;51.13;37.23;;;1.60;99.90;;;;;;5073156;28;20206;-90
2021/01/26 10:22:21;;;;;;;54.40;35.93;;;1.60;99.90;;;;;;5073066;28;20522;-91
2021/01/26 10:25:07;;;;;;;55.77;37.17;;;1.80;99.90;;;;;;5072971;28;20179;-91
2021/01/26 10:27:36;;;;;;;52.13;35.57;;;1.90;99.90;;;;;;5072824;28;20236;-91
2021/01/26 10:30:16;;;;;;;49.47;35.00;;;1.90;99.90;;;;;;5074147;28;20568;-92
2021/01/26 10:32:51;;;;;;;46.73;33.40;;;2.10;99.90;;;;;;5072949;28;20202;-91
2021/01/26 10:35:36;;;;;;;43.13;31.20;;;2.10;99.90;;;;;;5072879;28;20197;-91
2021/01/26 10:38:32;;;;;;;50.60;31.37;;;2.10;99.90;;;;;;5072687;28;20178;-91
2021/01/26 10:41:15;;;;;;;42.97;31.30;;;2.20;99.90;;;;;;5072925;28;20195;-91
2021/01/26 10:43:48;;;;;;;43.63;31.47;;;2.30;99.90;;;;;;5073071;28;20197;-90
2021/01/26 10:46:41;;;;;;;43.67;30.93;;;2.30;99.90;;;;;;5072993;28;20179;-91
2021/01/26 10:49:21;;;;;;;40.50;31.10;;;2.40;99.90;;;;;;5066558;28;20348;-91
2021/01/26 10:51:56;;;;;;;46.20;30.93;;;2.40;99.90;;;;;;5072633;28;20204;-91
2021/01/26 10:54:35;;;;;;;38.23;29.77;;;2.50;99.90;;;;;;5072432;28;20208;-91
2021/01/26 10:57:09;;;;;;;39.67;29.63;;;2.60;99.90;;;;;;5072983;28;20175;-91
2021/01/26 10:59:41;;;;;;;39.50;28.60;;;2.60;99.90;;;;;;5072414;28;20636;-91
2021/01/26 11:02:17;;;;;;;38.70;27.73;;;2.70;99.90;;;;;;5072624;28;20292;-91
2021/01/26 11:04:51;;;;;;;34.90;26.57;;;2.90;99.90;;;;;;5072838;28;20171;-91
2021/01/26 11:07:27;;;;;;;33.77;25.53;;;3.00;99.90;;;;;;5072248;28;20212;-91
2021/01/26 11:10:03;;;;;;;33.60;25.17;;;3.10;99.90;;;;;;5072154;28;20195;-91
2021/01/26 11:12:37;;;;;;;33.50;24.83;;;3.10;99.90;;;;;;5072820;28;20522;-91
2021/01/26 11:15:17;;;;;;;29.90;22.87;;;3.30;99.90;;;;;;5072180;28;20205;-90
2021/01/26 11:17:44;;;;;;;28.47;22.43;;;3.30;99.90;;;;;;5072510;28;20562;-90
2021/01/26 11:20:12;;;;;;;27.33;21.30;;;3.40;99.90;;;;;;5072206;28;20193;-90
2021/01/26 11:22:39;;;;;;;28.37;22.37;;;3.40;99.90;;;;;;5055527;28;20180;-91
2021/01/26 11:25:10;;;;;;;30.70;20.87;;;3.50;99.90;;;;;;5073068;28;20169;-89
2021/01/26 11:27:37;;;;;;;30.03;20.47;;;3.50;99.90;;;;;;5071870;28;20204;-90
2021/01/26 11:30:09;;;;;;;29.37;21.40;;;3.70;99.90;;;;;;5072168;28;20220;-90
2021/01/26 11:32:35;;;;;;;24.63;18.07;;;3.80;99.90;;;;;;5072285;28;20173;-91
2021/01/26 11:35:05;;;;;;;25.20;17.87;;;3.70;99.90;;;;;;5072232;28;20178;-92
2021/01/26 11:37:31;;;;;;;23.40;17.63;;;3.70;99.90;;;;;;5072144;28;20181;-91
2021/01/26 11:39:57;;;;;;;23.20;16.20;;;3.70;99.90;;;;;;5073331;28;20737;-91
2021/01/26 11:42:23;;;;;;;20.27;16.50;;;3.60;99.90;;;;;;5072698;28;20170;-91
2021/01/26 11:44:50;;;;;;;20.90;15.33;;;3.60;99.90;;;;;;5073224;28;20672;-91
2021/01/26 11:47:16;;;;;;;16.70;11.67;;;3.70;99.90;;;;;;5071948;28;20189;-90
2021/01/26 11:49:43;;;;;;;17.97;11.40;;;3.60;99.90;;;;;;5071836;28;20244;-92
2021/01/26 11:52:10;;;;;;;17.43;12.33;;;3.60;99.90;;;;;;5071970;28;20222;-92
2021/01/26 11:54:35;;;;;;;16.83;11.20;;;3.60;99.90;;;;;;5071856;28;20170;-91
2021/01/26 11:57:01;;;;;;;22.87;12.13;;;3.60;99.90;;;;;;5072057;28;20537;-91
2021/01/26 11:59:27;;;;;;;11.90;8.77;;;3.60;99.90;;;;;;5071729;28;20237;-91
2021/01/26 12:01:53;;;;;;;15.93;11.43;;;3.60;99.90;;;;;;5071792;28;20175;-91
2021/01/26 12:04:21;;;;;;;16.67;11.43;;;3.50;99.90;;;;;;5072954;28;20179;-91
2021/01/26 12:06:52;;;;;;;17.83;12.07;;;3.70;99.90;;;;;;5071920;28;20184;-91
2021/01/26 12:09:19;;;;;;;18.90;12.27;;;3.90;99.90;;;;;;5071603;28;20221;-91
2021/01/26 12:11:45;;;;;;;21.00;12.17;;;4.00;99.90;;;;;;5071673;28;20179;-91
2021/01/26 12:14:11;;;;;;;14.93;11.27;;;4.10;99.90;;;;;;5071940;28;20179;-92
2021/01/26 12:16:40;;;;;;;13.93;11.20;;;4.30;99.90;;;;;;5071696;28;20243;-92
2021/01/26 12:19:06;;;;;;;14.30;10.40;;;4.50;99.90;;;;;;5071600;28;20403;-90
2021/01/26 12:21:32;;;;;;;14.57;10.30;;;4.80;99.90;;;;;;5071936;28;20591;-92
2021/01/26 12:24:01;;;;;;;15.77;9.67;;;4.90;99.90;;;;;;5071480;28;20188;-91
2021/01/26 12:26:28;;;;;;;12.70;9.10;;;4.90;99.90;;;;;;5071697;28;20179;-92
2021/01/26 12:28:54;;;;;;;12.33;9.10;;;4.70;99.90;;;;;;5071494;28;20205;-92
2021/01/26 12:31:20;;;;;;;15.43;9.63;;;4.60;99.90;;;;;;5071659;28;20175;-92
2021/01/26 12:33:46;;;;;;;12.13;8.67;;;4.60;99.90;;;;;;5072032;28;20191;-92
2021/01/26 12:36:12;;;;;;;11.63;9.03;;;4.60;99.90;;;;;;5071928;28;20203;-91
2021/01/26 12:38:38;;;;;;;11.83;8.47;;;4.70;99.90;;;;;;5071304;28;20171;-90
2021/01/26 12:41:04;;;;;;;13.40;8.23;;;4.60;99.90;;;;;;5071383;28;20190;-91
2021/01/26 12:43:30;;;;;;;14.10;8.70;;;4.60;99.90;;;;;;5071283;28;20175;-91
2021/01/26 12:45:56;;;;;;;12.10;7.37;;;4.50;99.90;;;;;;5071669;28;20186;-91
2021/01/26 12:48:23;;;;;;;11.43;7.00;;;4.70;99.90;;;;;;5072590;28;20252;-91
2021/01/26 12:50:49;;;;;;;9.80;7.67;;;4.90;99.90;;;;;;5071722;28;20222;-91
2021/01/26 12:53:20;;;;;;;9.57;6.30;;;5.30;99.90;;;;;;5072180;28;20182;-91
2021/01/26 12:55:51;;;;;;;6.20;4.97;;;5.50;99.90;;;;;;5074814;28;20671;-91
2021/01/26 12:58:25;;;;;;;7.07;4.80;;;5.60;99.90;;;;;;5075159;28;20179;-91
2021/01/26 13:01:00;;;;;;;7.93;4.83;;;5.60;99.90;;;;;;5074877;28;20192;-92
2021/01/26 13:03:35;;;;;;;7.43;4.17;;;5.40;99.90;;;;;;5074888;28;20258;-92
2021/01/26 13:06:04;;;;;;;7.33;4.13;;;5.30;99.90;;;;;;5074803;28;20524;-91
2021/01/26 13:08:38;;;;;;;4.73;3.43;;;4.80;99.90;;;;;;5074598;28;20206;-91
2021/01/26 13:11:11;;;;;;;7.63;3.83;;;4.60;99.90;;;;;;5074834;28;20213;-91
2021/01/26 13:13:44;;;;;;;6.27;3.30;;;4.60;99.90;;;;;;5074683;28;20258;-90
2021/01/26 13:16:22;;;;;;;5.40;2.23;;;4.40;99.90;;;;;;5074719;28;20551;-91
2021/01/26 13:18:55;;;;;;;5.67;3.33;;;4.40;99.90;;;;;;5074474;28;20190;-91
2021/01/26 13:21:25;;;;;;;4.20;1.70;;;4.40;99.90;;;;;;5074924;28;20178;-92
2021/01/26 13:24:00;;;;;;;4.07;1.60;;;4.30;99.90;;;;;;5074891;28;20201;-92
2021/01/26 13:26:35;;;;;;;2.37;1.40;;;4.30;99.90;;;;;;5074565;28;20174;-91
2021/01/26 13:29:06;;;;;;;3.57;1.17;;;4.30;99.90;;;;;;5074085;28;20207;-91
2021/01/26 13:31:40;;;;;;;2.00;1.17;;;4.20;99.90;;;;;;5074171;28;20194;-90